createdAt,value
2023-08-11T00:01:12.905Z,55.86
2023-08-11T00:03:40.824Z,54.89
2023-08-11T00:06:08.809Z,55.86
2023-08-11T00:08:39.314Z,56.92
2023-08-11T00:11:07.478Z,57.80
2023-08-11T00:13:36.633Z,59.22
2023-08-11T00:16:06.108Z,61.03
2023-08-11T00:18:34.005Z,60.89
2023-08-11T00:21:01.854Z,61.35
2023-08-11T00:23:31.161Z,64.43
2023-08-11T00:25:59.411Z,64.65
2023-08-11T00:28:28.333Z,62.71
2023-08-11T00:30:56.428Z,57.75
2023-08-11T00:33:24.401Z,56.64
2023-08-11T00:35:52.709Z,57.08
2023-08-11T00:38:23.354Z,58.55
2023-08-11T00:40:53.103Z,59.68
2023-08-11T00:43:20.961Z,59.98
2023-08-11T00:45:50.489Z,61.38
2023-08-11T00:48:18.610Z,61.78
2023-08-11T00:50:46.969Z,64.64
2023-08-11T00:53:15.328Z,65.40
2023-08-11T00:55:44.117Z,61.38
2023-08-11T00:58:11.974Z,56.79
2023-08-11T01:00:40.381Z,55.72
2023-08-11T01:03:09.459Z,56.36
2023-08-11T01:05:44.334Z,57.86
2023-08-11T01:08:19.240Z,59.39
2023-08-11T01:10:59.930Z,60.14
2023-08-11T01:13:30.693Z,60.62
2023-08-11T01:15:59.477Z,60.99
2023-08-11T01:18:28.139Z,64.57
2023-08-11T01:21:00.549Z,64.82
2023-08-11T01:23:28.447Z,60.93
2023-08-11T01:25:57.298Z,57.97
2023-08-11T01:28:29.027Z,57.27
2023-08-11T01:30:57.692Z,58.20
2023-08-11T01:33:26.844Z,59.44
2023-08-11T01:35:55.972Z,60.25
2023-08-11T01:38:25.070Z,60.93
2023-08-11T01:40:53.606Z,61.42
2023-08-11T01:43:22.861Z,64.55
2023-08-11T01:45:51.441Z,65.39
2023-08-11T01:48:21.016Z,60.84
2023-08-11T01:50:49.081Z,56.15
2023-08-11T01:53:17.261Z,55.63
2023-08-11T01:55:46.031Z,56.94
2023-08-11T01:58:14.150Z,58.33
2023-08-11T02:00:42.249Z,58.97
2023-08-11T02:03:10.587Z,60.01
2023-08-11T02:05:38.962Z,61.29
2023-08-11T02:08:07.216Z,64.71
2023-08-11T02:10:35.055Z,63.72
2023-08-11T02:13:03.112Z,60.06
2023-08-11T02:15:30.963Z,56.01
2023-08-11T02:17:58.831Z,55.46
2023-08-11T02:20:27.478Z,56.85
2023-08-11T02:22:55.347Z,57.56
2023-08-11T02:25:25.868Z,59.18
2023-08-11T02:27:54.495Z,60.20
2023-08-11T02:30:23.574Z,60.71
2023-08-11T02:32:52.308Z,60.89
2023-08-11T02:35:20.660Z,64.42
2023-08-11T02:37:50.125Z,63.66
2023-08-11T02:40:21.531Z,61.08
2023-08-11T02:42:59.241Z,57.01
2023-08-11T02:45:27.615Z,56.18
2023-08-11T02:47:57.864Z,57.29
2023-08-11T02:50:27.562Z,58.53
2023-08-11T02:52:56.044Z,59.55
2023-08-11T02:55:24.127Z,60.78
2023-08-11T02:57:52.231Z,61.27
2023-08-11T03:00:20.306Z,62.06
2023-08-11T03:02:48.757Z,65.09
2023-08-11T03:05:17.889Z,65.33
2023-08-11T03:07:47.670Z,61.81
2023-08-11T03:10:15.578Z,57.85
2023-08-11T03:12:44.420Z,57.30
2023-08-11T03:15:14.945Z,57.77
2023-08-11T03:17:43.760Z,59.03
2023-08-11T03:20:14.852Z,59.88
2023-08-11T03:22:45.144Z,60.65
2023-08-11T03:25:14.015Z,61.53
2023-08-11T03:27:44.500Z,64.05
2023-08-11T03:30:17.232Z,64.48
2023-08-11T03:32:49.569Z,61.20
2023-08-11T03:35:18.892Z,57.93
2023-08-11T03:37:47.808Z,57.66
2023-08-11T03:40:18.070Z,58.83
2023-08-11T03:42:51.319Z,59.69
2023-08-11T03:45:19.700Z,60.75
2023-08-11T03:47:47.635Z,61.23
2023-08-11T03:50:20.725Z,64.09
2023-08-11T03:52:48.918Z,65.07
2023-08-11T03:55:17.246Z,62.87
2023-08-11T03:57:46.717Z,60.26
2023-08-11T04:00:16.972Z,57.89
2023-08-11T04:02:49.653Z,57.17
2023-08-11T04:05:18.739Z,58.17
2023-08-11T04:07:46.751Z,59.07
2023-08-11T04:10:16.318Z,60.30
2023-08-11T04:12:44.260Z,61.23
2023-08-11T04:15:12.155Z,65.38
2023-08-11T04:17:40.121Z,64.18
2023-08-11T04:20:15.479Z,61.11
2023-08-11T04:22:43.832Z,57.90
2023-08-11T04:25:13.239Z,57.45
2023-08-11T04:27:43.819Z,58.00
2023-08-11T04:30:13.521Z,59.54
2023-08-11T04:32:43.014Z,60.79
2023-08-11T04:35:11.200Z,64.19
2023-08-11T04:37:40.504Z,64.28
2023-08-11T04:40:14.749Z,61.89
2023-08-11T04:42:44.622Z,56.81
2023-08-11T04:45:17.220Z,55.89
2023-08-11T04:47:46.435Z,57.26
2023-08-11T04:50:18.191Z,58.66
2023-08-11T04:52:47.300Z,59.23
2023-08-11T04:55:15.863Z,60.85
2023-08-11T04:57:44.940Z,61.68
2023-08-11T05:00:18.705Z,64.77
2023-08-11T05:02:47.287Z,63.64
2023-08-11T05:05:15.454Z,60.15
2023-08-11T05:07:43.384Z,57.03
2023-08-11T05:10:12.331Z,56.37
2023-08-11T05:12:40.734Z,57.38
2023-08-11T05:15:09.061Z,58.51
2023-08-11T05:17:37.036Z,59.62
2023-08-11T05:20:09.726Z,60.19
2023-08-11T05:22:38.471Z,60.37
2023-08-11T05:25:07.402Z,60.44
2023-08-11T05:27:35.211Z,60.27
2023-08-11T05:30:04.107Z,60.15
2023-08-11T05:32:32.973Z,60.46
2023-08-11T05:35:00.963Z,60.50
2023-08-11T05:37:29.391Z,60.36
2023-08-11T05:39:57.282Z,60.61
2023-08-11T05:42:25.183Z,60.69
2023-08-11T05:44:53.230Z,61.04
2023-08-11T05:47:21.434Z,61.30
2023-08-11T05:49:49.495Z,61.93
2023-08-11T05:52:17.317Z,61.36
2023-08-11T05:54:45.441Z,61.05
2023-08-11T05:57:13.354Z,61.15
2023-08-11T05:59:41.217Z,64.95
2023-08-11T06:02:09.152Z,63.24
2023-08-11T06:04:37.500Z,57.31
2023-08-11T06:07:05.330Z,55.56
2023-08-11T06:09:33.956Z,55.76
2023-08-11T06:12:01.914Z,56.16
2023-08-11T06:14:29.807Z,56.48
2023-08-11T06:16:57.729Z,57.10
2023-08-11T06:19:26.589Z,57.24
2023-08-11T06:21:55.791Z,57.42
2023-08-11T06:24:24.572Z,57.59
2023-08-11T06:26:55.546Z,57.39
2023-08-11T06:29:23.442Z,56.75
2023-08-11T06:31:51.386Z,56.76
2023-08-11T06:34:19.428Z,56.96
2023-08-11T06:36:47.357Z,57.66
2023-08-11T06:39:16.219Z,57.46
2023-08-11T06:41:44.204Z,57.24
2023-08-11T06:44:12.221Z,57.55
2023-08-11T06:46:40.099Z,57.77
2023-08-11T06:49:08.185Z,58.05
2023-08-11T06:51:36.243Z,58.20
2023-08-11T06:54:04.393Z,57.79
2023-08-11T06:56:32.373Z,57.43
2023-08-11T06:59:00.288Z,57.37
2023-08-11T07:01:28.217Z,57.33
2023-08-11T07:03:56.262Z,56.45
2023-08-11T07:06:24.121Z,56.28
2023-08-11T07:08:52.073Z,55.82
2023-08-11T07:11:19.975Z,55.55
2023-08-11T07:13:47.857Z,56.11
2023-08-11T07:16:15.775Z,54.53
2023-08-11T07:18:43.716Z,54.50
2023-08-11T07:21:11.737Z,54.41
2023-08-11T07:23:39.620Z,53.98
2023-08-11T07:26:07.855Z,53.47
2023-08-11T07:28:35.647Z,53.24
2023-08-11T07:31:03.682Z,52.98
2023-08-11T07:33:31.649Z,52.37
2023-08-11T07:35:59.817Z,51.88
2023-08-11T07:38:27.800Z,51.18
2023-08-11T07:40:55.760Z,50.55
2023-08-11T07:43:23.620Z,50.97
2023-08-11T07:45:51.465Z,49.44
2023-08-11T07:48:19.747Z,49.11
2023-08-11T07:50:47.583Z,48.61
2023-08-11T07:53:15.508Z,47.60
2023-08-11T07:55:43.470Z,48.59
2023-08-11T07:58:11.405Z,47.94
2023-08-11T08:00:39.371Z,47.28
2023-08-11T08:03:07.722Z,46.91
2023-08-11T08:05:36.926Z,47.15
2023-08-11T08:08:05.074Z,47.33
2023-08-11T08:10:32.935Z,46.99
2023-08-11T08:13:00.863Z,45.78
2023-08-11T08:15:29.742Z,44.68
2023-08-11T08:17:57.687Z,45.32
2023-08-11T08:20:25.866Z,45.78
2023-08-11T08:22:53.803Z,46.13
2023-08-11T08:25:21.743Z,45.75
2023-08-11T08:28:05.616Z,44.98
2023-08-11T08:30:35.221Z,44.82
2023-08-11T08:33:03.630Z,44.09
2023-08-11T08:35:32.161Z,43.86
2023-08-11T08:38:00.214Z,44.49
2023-08-11T08:40:28.852Z,43.82
2023-08-11T08:42:56.680Z,43.37
2023-08-11T08:45:25.124Z,43.70
2023-08-11T08:47:54.212Z,44.13
2023-08-11T08:50:24.079Z,43.25
2023-08-11T08:52:53.391Z,42.75
2023-08-11T08:55:21.353Z,41.64
2023-08-11T08:57:50.024Z,41.39
2023-08-11T09:00:25.011Z,41.69
2023-08-11T09:02:55.260Z,41.70
2023-08-11T09:05:23.565Z,42.80
2023-08-11T09:07:51.791Z,42.54
2023-08-11T09:10:20.213Z,41.21
2023-08-11T09:12:49.828Z,41.43
2023-08-11T09:15:17.641Z,39.29
2023-08-11T09:17:48.422Z,38.64
2023-08-11T09:20:20.974Z,38.26
2023-08-11T09:22:49.109Z,39.10
2023-08-11T09:25:17.483Z,38.65
2023-08-11T09:27:50.632Z,37.72
2023-08-11T09:30:18.576Z,37.36
2023-08-11T09:32:50.611Z,37.65
2023-08-11T09:35:24.231Z,37.36
2023-08-11T09:37:56.183Z,37.24
2023-08-11T09:40:24.308Z,36.77
2023-08-11T09:42:56.454Z,37.73
2023-08-11T09:45:25.195Z,37.84
2023-08-11T09:47:53.351Z,37.27
2023-08-11T09:50:22.273Z,37.41
2023-08-11T09:52:50.722Z,36.84
2023-08-11T09:55:19.693Z,36.01
2023-08-11T09:57:48.697Z,36.16
2023-08-11T10:00:20.768Z,35.34
2023-08-11T10:02:53.448Z,34.39
2023-08-11T10:05:21.922Z,34.84
2023-08-11T10:07:51.814Z,35.20
2023-08-11T10:10:21.490Z,35.54
2023-08-11T10:13:12.527Z,34.69
2023-08-11T10:15:42.900Z,34.01
2023-08-11T10:18:11.591Z,34.29
2023-08-11T10:20:39.949Z,33.70
2023-08-11T10:23:09.537Z,33.55
2023-08-11T10:25:37.729Z,33.03
2023-08-11T10:28:08.448Z,33.96
2023-08-11T10:30:37.440Z,33.50
2023-08-11T10:33:10.289Z,33.09
2023-08-11T10:35:39.107Z,32.52
2023-08-11T10:38:07.149Z,32.40
2023-08-11T10:40:36.555Z,32.99
2023-08-11T10:43:05.650Z,32.10
2023-08-11T10:45:34.552Z,32.91
2023-08-11T10:48:10.387Z,33.21
2023-08-11T10:50:39.624Z,33.18
2023-08-11T10:53:20.876Z,33.10
2023-08-11T10:56:06.696Z,33.13
2023-08-11T10:58:34.642Z,32.89
2023-08-11T11:01:02.654Z,32.16
2023-08-11T11:03:30.862Z,32.44
2023-08-11T11:05:59.294Z,32.83
2023-08-11T11:08:27.390Z,31.42
2023-08-11T11:10:55.711Z,30.77
2023-08-11T11:13:24.506Z,30.86
2023-08-11T11:15:52.370Z,31.90
2023-08-11T11:18:23.303Z,31.99
2023-08-11T11:20:53.541Z,31.30
2023-08-11T11:23:21.889Z,30.80
2023-08-11T11:25:50.835Z,30.41
2023-08-11T11:28:18.743Z,30.91
2023-08-11T11:30:47.142Z,31.55
2023-08-11T11:33:15.704Z,31.42
2023-08-11T11:35:44.040Z,31.03
2023-08-11T11:38:12.611Z,31.52
2023-08-11T11:40:42.075Z,31.66
2023-08-11T11:43:11.549Z,31.21
2023-08-11T11:45:39.776Z,32.29
2023-08-11T11:48:08.386Z,32.27
2023-08-11T11:50:40.662Z,31.79
2023-08-11T11:53:09.880Z,32.36
2023-08-11T11:55:48.525Z,32.30
2023-08-11T11:58:17.326Z,32.23
2023-08-11T12:00:48.458Z,31.77
2023-08-11T12:03:16.601Z,32.07
2023-08-11T12:05:45.040Z,31.46
2023-08-11T12:08:20.909Z,31.03
2023-08-11T12:10:53.917Z,31.55
2023-08-11T12:13:22.840Z,31.77
2023-08-11T12:15:50.837Z,31.84
2023-08-11T12:18:20.390Z,31.95
2023-08-11T12:20:49.017Z,32.87
2023-08-11T12:23:17.153Z,32.26
2023-08-11T12:25:45.118Z,32.93
2023-08-11T12:28:13.037Z,32.09
2023-08-11T12:30:40.947Z,31.50
2023-08-11T12:33:09.684Z,31.80
2023-08-11T12:35:38.281Z,32.01
2023-08-11T12:38:07.186Z,31.38
2023-08-11T12:40:35.698Z,30.92
2023-08-11T12:43:04.756Z,30.16
2023-08-11T12:45:32.970Z,29.66
2023-08-11T12:48:00.941Z,29.87
2023-08-11T12:50:32.160Z,29.24
2023-08-11T12:53:01.525Z,29.52
2023-08-11T12:55:30.956Z,29.60
2023-08-11T12:58:03.534Z,29.77
2023-08-11T13:00:33.704Z,30.17
2023-08-11T13:03:02.554Z,30.13
2023-08-11T13:05:31.155Z,29.81
2023-08-11T13:07:59.231Z,30.40
2023-08-11T13:10:27.643Z,30.24
2023-08-11T13:12:57.868Z,30.53
2023-08-11T13:15:25.926Z,30.21
2023-08-11T13:17:56.865Z,31.05
2023-08-11T13:20:25.002Z,29.94
2023-08-11T13:22:52.976Z,30.31
2023-08-11T13:25:20.886Z,30.04
2023-08-11T13:27:48.922Z,29.13
2023-08-11T13:30:17.190Z,29.06
2023-08-11T13:32:47.501Z,28.61
2023-08-11T13:35:15.646Z,27.84
2023-08-11T13:37:43.766Z,28.29
2023-08-11T13:40:12.736Z,27.83
2023-08-11T13:42:43.452Z,27.77
2023-08-11T13:45:12.074Z,27.34
2023-08-11T13:47:39.940Z,27.55
2023-08-11T13:50:08.397Z,27.32
2023-08-11T13:52:39.461Z,27.91
2023-08-11T13:55:10.513Z,28.07
2023-08-11T13:57:38.561Z,28.57
2023-08-11T14:00:09.418Z,28.60
2023-08-11T14:02:37.663Z,28.54
2023-08-11T14:05:06.343Z,28.14
2023-08-11T14:07:36.168Z,27.95
2023-08-11T14:10:04.780Z,27.33
2023-08-11T14:12:32.620Z,27.39
2023-08-11T14:15:01.511Z,27.32
2023-08-11T14:17:29.557Z,26.95
2023-08-11T14:19:57.509Z,27.25
2023-08-11T14:22:25.410Z,26.40
2023-08-11T14:24:55.568Z,25.31
2023-08-11T14:27:23.991Z,25.02
2023-08-11T14:29:52.066Z,24.95
2023-08-11T14:32:26.060Z,24.84
2023-08-11T14:34:54.363Z,24.42
2023-08-11T14:37:22.211Z,24.65
2023-08-11T14:39:50.480Z,24.30
2023-08-11T14:42:18.613Z,24.16
2023-08-11T14:44:46.594Z,23.72
2023-08-11T14:47:15.459Z,23.27
2023-08-11T14:49:44.562Z,23.49
2023-08-11T14:52:13.851Z,23.12
2023-08-11T14:54:42.898Z,22.44
2023-08-11T14:57:15.948Z,21.59
2023-08-11T14:59:46.696Z,21.25
2023-08-11T15:02:14.659Z,21.32
2023-08-11T15:04:42.620Z,20.63
2023-08-11T15:07:10.792Z,20.35
2023-08-11T15:09:40.718Z,19.61
2023-08-11T15:12:09.683Z,19.30
2023-08-11T15:14:38.329Z,19.30
2023-08-11T15:17:06.410Z,18.56
2023-08-11T15:19:34.429Z,18.42
2023-08-11T15:22:03.304Z,18.02
2023-08-11T15:24:34.085Z,18.19
2023-08-11T15:27:02.690Z,18.46
2023-08-11T15:29:30.600Z,17.83
2023-08-11T15:31:59.002Z,17.73
2023-08-11T15:34:27.327Z,17.31
2023-08-11T15:36:55.170Z,16.91
2023-08-11T15:39:23.031Z,17.20
2023-08-11T15:41:50.827Z,16.93
2023-08-11T15:44:21.453Z,16.35
2023-08-11T15:46:51.410Z,16.42
2023-08-11T15:49:19.312Z,15.88
2023-08-11T15:51:47.313Z,15.70
2023-08-11T15:54:15.240Z,15.93
2023-08-11T15:56:43.165Z,15.21
2023-08-11T15:59:11.454Z,14.98
2023-08-11T16:01:40.087Z,14.67
2023-08-11T16:04:08.390Z,14.42
2023-08-11T16:06:36.398Z,14.27
2023-08-11T16:09:06.931Z,14.16
2023-08-11T16:11:35.687Z,14.26
2023-08-11T16:14:03.914Z,14.18
2023-08-11T16:16:31.889Z,13.93
2023-08-11T16:19:00.824Z,13.81
2023-08-11T16:21:28.791Z,14.05
2023-08-11T16:23:56.936Z,13.95
2023-08-11T16:26:24.980Z,14.07
2023-08-11T16:28:53.040Z,13.90
2023-08-11T16:31:21.496Z,13.40
2023-08-11T16:33:50.233Z,13.17
2023-08-11T16:36:21.385Z,12.88
2023-08-11T16:38:49.784Z,12.75
2023-08-11T16:41:18.769Z,12.61
2023-08-11T16:43:47.293Z,12.64
2023-08-11T16:46:17.223Z,12.63
2023-08-11T16:48:45.410Z,12.23
2023-08-11T16:51:15.397Z,11.99
2023-08-11T16:53:43.733Z,11.96
2023-08-11T16:56:12.087Z,11.80
2023-08-11T16:58:40.040Z,11.53
2023-08-11T17:01:07.940Z,11.39
2023-08-11T17:03:36.466Z,11.46
2023-08-11T17:06:05.440Z,11.64
2023-08-11T17:08:34.459Z,11.43
2023-08-11T17:11:04.243Z,11.32
2023-08-11T17:13:32.914Z,11.30
2023-08-11T17:16:01.571Z,11.49
2023-08-11T17:18:29.676Z,11.98
2023-08-11T17:21:00.239Z,12.34
2023-08-11T17:23:29.622Z,13.15
2023-08-11T17:25:57.487Z,14.43
2023-08-11T17:28:25.792Z,15.82
2023-08-11T17:30:58.968Z,17.61
2023-08-11T17:33:28.603Z,19.14
2023-08-11T17:35:59.682Z,20.48
2023-08-11T17:38:27.694Z,22.26
2023-08-11T17:40:55.463Z,23.78
2023-08-11T17:43:24.246Z,25.32
2023-08-11T17:45:52.418Z,26.05
2023-08-11T17:48:20.431Z,27.46
2023-08-11T17:50:48.395Z,28.80
2023-08-11T17:53:16.496Z,30.39
2023-08-11T17:55:44.437Z,31.88
2023-08-11T17:58:12.437Z,32.70
2023-08-11T18:00:42.303Z,33.84
2023-08-11T18:03:10.698Z,34.88
2023-08-11T18:05:39.929Z,35.63
2023-08-11T18:08:08.403Z,35.66
2023-08-11T18:10:36.393Z,37.04
2023-08-11T18:13:04.423Z,38.04
2023-08-11T18:15:32.354Z,38.63
2023-08-11T18:18:00.463Z,39.63
2023-08-11T18:20:28.776Z,39.99
2023-08-11T18:22:59.039Z,40.81
2023-08-11T18:25:27.137Z,41.65
2023-08-11T18:27:55.704Z,42.44
2023-08-11T18:30:23.835Z,43.23
2023-08-11T18:32:51.942Z,44.01
2023-08-11T18:35:20.036Z,44.80
2023-08-11T18:37:47.989Z,45.35
2023-08-11T18:40:16.198Z,45.96
2023-08-11T18:42:44.156Z,46.97
2023-08-11T18:45:12.168Z,47.83
2023-08-11T18:47:40.486Z,47.94
2023-08-11T18:50:09.031Z,48.92
2023-08-11T18:52:37.271Z,49.65
2023-08-11T18:55:05.871Z,50.35
2023-08-11T18:57:35.011Z,50.99
2023-08-11T19:00:04.758Z,51.40
2023-08-11T19:02:32.622Z,52.17
2023-08-11T19:05:00.531Z,52.53
2023-08-11T19:07:28.484Z,52.60
2023-08-11T19:09:56.302Z,53.45
2023-08-11T19:12:24.516Z,53.54
2023-08-11T19:14:52.534Z,54.21
2023-08-11T19:17:21.844Z,54.67
2023-08-11T19:19:49.652Z,55.24
2023-08-11T19:22:20.505Z,55.31
2023-08-11T19:24:48.549Z,55.87
2023-08-11T19:27:16.483Z,55.93
2023-08-11T19:29:44.703Z,56.45
2023-08-11T19:32:13.499Z,56.75
2023-08-11T19:34:41.784Z,56.58
2023-08-11T19:37:09.598Z,57.06
2023-08-11T19:39:38.509Z,57.46
2023-08-11T19:42:06.382Z,57.58
2023-08-11T19:44:37.453Z,58.06
2023-08-11T19:47:05.518Z,57.99
2023-08-11T19:49:33.349Z,58.14
2023-08-11T19:52:01.471Z,58.47
2023-08-11T19:54:29.865Z,59.13
2023-08-11T19:56:57.742Z,59.35
2023-08-11T19:59:25.733Z,59.66
2023-08-11T20:01:54.053Z,59.83
2023-08-11T20:04:22.962Z,60.12
2023-08-11T20:06:51.093Z,60.47
2023-08-11T20:09:20.426Z,60.78
2023-08-11T20:11:48.408Z,60.93
2023-08-11T20:14:17.092Z,61.25
2023-08-11T20:16:46.359Z,61.52
2023-08-11T20:19:14.346Z,61.57
2023-08-11T20:21:43.627Z,61.44
2023-08-11T20:24:11.890Z,61.62
2023-08-11T20:26:39.770Z,61.54
2023-08-11T20:29:07.632Z,61.89
2023-08-11T20:31:35.632Z,64.29
2023-08-11T20:34:03.695Z,64.72
2023-08-11T20:36:31.575Z,59.72
2023-08-11T20:38:59.485Z,55.60
2023-08-11T20:41:27.417Z,55.35
2023-08-11T20:43:55.447Z,56.19
2023-08-11T20:46:23.299Z,56.59
2023-08-11T20:48:51.530Z,57.25
2023-08-11T20:51:20.032Z,58.17
2023-08-11T20:53:50.571Z,58.67
2023-08-11T20:56:18.459Z,59.31
2023-08-11T20:58:46.804Z,59.53
2023-08-11T21:01:15.025Z,59.86
2023-08-11T21:03:43.234Z,60.59
2023-08-11T21:06:11.428Z,61.04
2023-08-11T21:08:45.705Z,61.71
2023-08-11T21:11:15.219Z,64.07
2023-08-11T21:13:43.536Z,64.73
2023-08-11T21:16:12.555Z,60.44
2023-08-11T21:18:40.692Z,55.83
2023-08-11T21:21:08.701Z,55.01
2023-08-11T21:23:36.704Z,56.19
2023-08-11T21:26:04.575Z,57.15
2023-08-11T21:28:32.537Z,58.23
2023-08-11T21:31:15.571Z,58.74
2023-08-11T21:34:08.196Z,59.31
2023-08-11T21:36:37.482Z,59.49
2023-08-11T21:39:09.317Z,60.25
2023-08-11T21:41:37.434Z,61.09
2023-08-11T21:44:06.070Z,60.93
2023-08-11T21:46:37.807Z,61.00
2023-08-11T21:49:06.155Z,61.72
2023-08-11T21:51:34.262Z,65.24
2023-08-11T21:54:02.420Z,65.33
2023-08-11T21:56:30.329Z,60.82
2023-08-11T21:58:58.388Z,56.77
2023-08-11T22:01:26.331Z,55.94
2023-08-11T22:03:54.306Z,56.37
2023-08-11T22:06:22.273Z,57.13
2023-08-11T22:08:50.703Z,57.76
2023-08-11T22:11:35.424Z,58.25
2023-08-11T22:14:05.925Z,58.64
2023-08-11T22:16:34.150Z,59.45
2023-08-11T22:19:02.101Z,60.18
2023-08-11T22:21:30.055Z,60.81
2023-08-11T22:23:57.902Z,61.43
2023-08-11T22:26:25.700Z,65.57
2023-08-11T22:28:53.587Z,65.27
2023-08-11T22:31:21.705Z,61.09
2023-08-11T22:33:49.582Z,56.42
2023-08-11T22:36:17.643Z,55.71
2023-08-11T22:38:45.535Z,56.63
2023-08-11T22:41:13.349Z,57.52
2023-08-11T22:43:41.195Z,58.01
2023-08-11T22:46:09.104Z,58.66
2023-08-11T22:48:37.125Z,59.22
2023-08-11T22:51:05.175Z,60.02
2023-08-11T22:53:36.619Z,60.41
2023-08-11T22:56:07.296Z,60.84
2023-08-11T22:58:35.086Z,61.40
2023-08-11T23:01:04.130Z,61.75
2023-08-11T23:03:31.930Z,65.66
2023-08-11T23:05:59.889Z,64.77
2023-08-11T23:08:27.668Z,59.92
2023-08-11T23:10:55.670Z,55.34
2023-08-11T23:13:23.551Z,54.67
2023-08-11T23:15:51.451Z,55.65
2023-08-11T23:18:19.353Z,56.45
2023-08-11T23:20:47.599Z,57.15
2023-08-11T23:23:15.532Z,57.94
2023-08-11T23:25:44.170Z,58.67
2023-08-11T23:28:12.133Z,59.23
2023-08-11T23:30:39.940Z,60.07
2023-08-11T23:33:07.954Z,60.61
2023-08-11T23:35:39.631Z,60.74
2023-08-11T23:38:07.466Z,61.00
2023-08-11T23:40:35.292Z,61.36
2023-08-11T23:43:03.385Z,61.67
2023-08-11T23:45:32.057Z,65.22
2023-08-11T23:48:00.036Z,63.87
2023-08-11T23:50:27.976Z,60.77
2023-08-11T23:52:55.878Z,56.58
2023-08-11T23:55:26.036Z,55.42
2023-08-11T23:57:54.567Z,56.17
